createdAt,value
2023-02-03T00:00:01.388Z,99.90
2023-02-03T00:02:28.941Z,99.90
2023-02-03T00:04:56.473Z,99.90
2023-02-03T00:07:24.069Z,99.90
2023-02-03T00:09:51.846Z,99.90
2023-02-03T00:12:19.410Z,99.90
2023-02-03T00:14:47.052Z,99.90
2023-02-03T00:17:15.345Z,99.90
2023-02-03T00:19:42.965Z,99.90
2023-02-03T00:22:10.541Z,99.90
2023-02-03T00:24:38.112Z,99.90
2023-02-03T00:27:05.609Z,99.90
2023-02-03T00:29:33.172Z,99.90
2023-02-03T00:32:01.054Z,99.90
2023-02-03T00:34:30.391Z,99.90
2023-02-03T00:36:58.246Z,99.90
2023-02-03T00:39:26.038Z,99.90
2023-02-03T00:41:53.664Z,99.90
2023-02-03T00:44:21.213Z,99.90
2023-02-03T00:46:48.775Z,99.90
2023-02-03T00:49:16.339Z,99.90
2023-02-03T00:51:43.911Z,99.90
2023-02-03T00:54:11.451Z,99.90
2023-02-03T00:56:39.222Z,99.90
2023-02-03T00:59:07.042Z,99.90
2023-02-03T01:01:35.392Z,99.90
2023-02-03T01:04:03.087Z,99.90
2023-02-03T01:06:30.910Z,99.90
2023-02-03T01:08:58.624Z,99.90
2023-02-03T01:11:28.593Z,99.90
2023-02-03T01:13:59.426Z,99.90
2023-02-03T01:16:28.695Z,99.90
2023-02-03T01:18:57.365Z,99.90
2023-02-03T01:21:26.343Z,99.90
2023-02-03T01:23:54.344Z,99.90
2023-02-03T01:26:24.144Z,99.90
2023-02-03T01:28:53.818Z,99.90
2023-02-03T01:31:25.282Z,99.90
2023-02-03T01:33:54.446Z,99.90
2023-02-03T01:36:24.737Z,99.90
2023-02-03T01:38:52.372Z,99.90
2023-02-03T01:41:27.571Z,99.90
2023-02-03T01:43:57.452Z,99.90
2023-02-03T01:46:43.319Z,99.90
2023-02-03T01:49:24.891Z,99.90
2023-02-03T01:51:53.594Z,99.90
2023-02-03T01:54:28.050Z,99.90
2023-02-03T01:56:59.505Z,99.90
2023-02-03T01:59:28.951Z,99.90
2023-02-03T02:01:59.008Z,99.90
2023-02-03T02:04:34.429Z,99.90
2023-02-03T02:07:02.500Z,99.90
2023-02-03T02:09:30.206Z,99.90
2023-02-03T02:11:57.707Z,99.90
2023-02-03T02:14:25.556Z,99.90
2023-02-03T02:17:19.899Z,99.90
2023-02-03T02:20:12.421Z,99.90
2023-02-03T02:23:07.947Z,99.90
2023-02-03T02:26:03.226Z,99.90
2023-02-03T02:29:03.708Z,99.90
2023-02-03T02:31:50.162Z,99.90
2023-02-03T02:34:39.246Z,99.90
2023-02-03T02:37:35.619Z,99.90
2023-02-03T02:40:10.898Z,99.90
2023-02-03T02:42:58.049Z,99.90
2023-02-03T02:45:45.068Z,99.90
2023-02-03T02:49:04.651Z,99.90
2023-02-03T02:51:33.902Z,99.90
2023-02-03T02:54:08.587Z,99.90
2023-02-03T02:56:39.686Z,99.90
2023-02-03T02:59:07.926Z,99.90
2023-02-03T03:01:35.606Z,99.90
2023-02-03T03:04:06.223Z,99.90
2023-02-03T03:06:58.860Z,99.90
2023-02-03T03:09:35.862Z,99.90
2023-02-03T03:12:10.796Z,99.90
2023-02-03T03:14:44.001Z,99.90
2023-02-03T03:17:18.994Z,99.90
2023-02-03T03:19:54.097Z,99.90
2023-02-03T03:22:27.193Z,99.90
2023-02-03T03:25:01.377Z,99.90
2023-02-03T03:27:40.656Z,99.90
2023-02-03T03:30:25.695Z,99.90
2023-02-03T03:32:53.986Z,99.90
2023-02-03T03:35:22.528Z,99.90
2023-02-03T03:38:09.266Z,99.90
2023-02-03T03:40:43.964Z,99.90
2023-02-03T03:43:30.313Z,99.90
2023-02-03T03:46:09.565Z,99.90
2023-02-03T03:48:39.909Z,99.90
2023-02-03T03:51:18.254Z,99.90
2023-02-03T03:53:48.999Z,99.90
2023-02-03T03:56:26.025Z,99.90
2023-02-03T03:58:55.030Z,99.90
2023-02-03T04:01:29.853Z,99.90
2023-02-03T04:04:09.542Z,99.90
2023-02-03T04:06:39.749Z,99.90
2023-02-03T04:09:07.716Z,99.90
2023-02-03T04:11:54.435Z,99.90
2023-02-03T04:14:22.004Z,99.90
2023-02-03T04:16:49.575Z,99.90
2023-02-03T04:19:17.274Z,99.90
2023-02-03T04:21:45.092Z,99.90
2023-02-03T04:24:13.104Z,99.90
2023-02-03T04:26:41.116Z,99.90
2023-02-03T04:29:12.350Z,99.90
2023-02-03T04:31:40.067Z,99.90
2023-02-03T04:34:07.773Z,99.90
2023-02-03T04:36:35.304Z,99.90
2023-02-03T04:39:02.787Z,99.90
2023-02-03T04:41:30.337Z,99.90
2023-02-03T04:43:58.059Z,99.90
2023-02-03T04:46:25.711Z,99.90
2023-02-03T04:48:53.296Z,99.90
2023-02-03T04:51:20.861Z,99.90
2023-02-03T04:53:48.503Z,99.90
2023-02-03T04:56:16.642Z,99.90
2023-02-03T04:58:44.252Z,99.90
2023-02-03T05:01:12.052Z,99.90
2023-02-03T05:03:39.716Z,99.90
2023-02-03T05:06:07.365Z,99.90
2023-02-03T05:08:34.931Z,99.90
2023-02-03T05:11:02.663Z,99.90
2023-02-03T05:13:30.611Z,99.90
2023-02-03T05:15:58.177Z,99.90
2023-02-03T05:18:25.829Z,99.90
2023-02-03T05:20:53.599Z,99.90
2023-02-03T05:23:21.224Z,99.90
2023-02-03T05:25:49.375Z,99.90
2023-02-03T05:28:16.992Z,99.90
2023-02-03T05:30:44.710Z,99.90
2023-02-03T05:33:12.319Z,99.90
2023-02-03T05:35:39.854Z,99.90
2023-02-03T05:38:07.619Z,99.90
2023-02-03T05:40:53.904Z,99.90
2023-02-03T05:43:21.416Z,99.90
2023-02-03T05:45:48.972Z,99.90
2023-02-03T05:48:16.535Z,99.90
2023-02-03T05:50:44.054Z,99.90
2023-02-03T05:53:11.715Z,99.90
2023-02-03T05:55:39.411Z,99.90
2023-02-03T05:58:06.963Z,99.90
2023-02-03T06:00:34.535Z,99.90
2023-02-03T06:03:03.563Z,99.90
2023-02-03T06:05:32.988Z,99.90
2023-02-03T06:08:01.514Z,99.90
2023-02-03T06:10:29.419Z,99.90
2023-02-03T06:12:57.250Z,99.90
2023-02-03T06:15:24.762Z,99.90
2023-02-03T06:17:52.374Z,99.90
2023-02-03T06:20:20.703Z,99.90
2023-02-03T06:22:48.290Z,99.90
2023-02-03T06:25:15.879Z,99.90
2023-02-03T06:27:43.466Z,99.90
2023-02-03T06:30:20.805Z,99.90
2023-02-03T06:32:48.727Z,99.90
2023-02-03T06:35:16.574Z,99.90
2023-02-03T06:37:44.206Z,99.90
2023-02-03T06:40:12.683Z,99.90
2023-02-03T06:42:40.391Z,99.90
2023-02-03T06:45:11.525Z,99.90
2023-02-03T06:47:46.214Z,99.90
2023-02-03T06:50:17.054Z,99.90
2023-02-03T06:52:46.244Z,99.90
2023-02-03T06:55:16.455Z,99.90
2023-02-03T06:57:48.171Z,99.90
2023-02-03T07:00:19.135Z,99.90
2023-02-03T07:02:55.630Z,99.90
2023-02-03T07:05:24.362Z,99.90
2023-02-03T07:07:56.900Z,99.90
2023-02-03T07:10:24.713Z,99.90
2023-02-03T07:12:54.956Z,99.90
2023-02-03T07:15:22.541Z,99.90
2023-02-03T07:17:54.806Z,99.90
2023-02-03T07:20:29.102Z,99.90
2023-02-03T07:23:02.956Z,99.90
2023-02-03T07:28:12.887Z,99.90
2023-02-03T07:30:44.091Z,99.90
2023-02-03T07:33:12.098Z,99.90
2023-02-03T07:35:39.833Z,99.90
2023-02-03T07:38:07.548Z,99.90
2023-02-03T07:40:35.186Z,99.90
2023-02-03T07:43:02.755Z,99.90
2023-02-03T07:45:30.364Z,99.90
2023-02-03T07:47:58.106Z,99.90
2023-02-03T07:50:46.876Z,99.90
2023-02-03T07:53:24.359Z,99.90
2023-02-03T07:55:52.091Z,99.90
2023-02-03T07:58:28.337Z,99.90
2023-02-03T08:01:09.351Z,99.90
2023-02-03T08:03:45.723Z,99.90
2023-02-03T08:06:16.853Z,99.90
2023-02-03T08:08:52.194Z,99.90
2023-02-03T08:11:27.007Z,99.90
2023-02-03T08:13:56.165Z,99.90
2023-02-03T08:16:23.863Z,99.90
2023-02-03T08:18:51.630Z,99.90
2023-02-03T08:21:19.416Z,99.90
2023-02-03T08:23:47.308Z,99.90
2023-02-03T08:26:14.891Z,99.90
2023-02-03T08:28:42.564Z,99.90
2023-02-03T08:31:12.345Z,99.90
2023-02-03T08:33:40.084Z,99.90
2023-02-03T08:36:08.413Z,99.90
2023-02-03T08:38:36.108Z,99.90
2023-02-03T08:41:10.510Z,99.90
2023-02-03T08:43:38.892Z,99.90
2023-02-03T08:46:08.553Z,99.90
2023-02-03T08:48:36.232Z,99.90
2023-02-03T08:51:10.175Z,99.90
2023-02-03T08:53:37.803Z,99.90
2023-02-03T08:56:09.231Z,99.90
2023-02-03T08:58:37.890Z,99.90
2023-02-03T09:01:10.174Z,99.90
2023-02-03T09:03:38.618Z,99.90
2023-02-03T09:06:07.594Z,99.90
2023-02-03T09:08:35.268Z,99.90
2023-02-03T09:11:03.061Z,99.90
2023-02-03T09:13:30.738Z,99.90
2023-02-03T09:16:01.203Z,99.90
2023-02-03T09:18:28.753Z,99.90
2023-02-03T09:21:08.247Z,99.90
2023-02-03T09:23:35.964Z,99.90
2023-02-03T09:26:21.636Z,99.90
2023-02-03T09:28:56.175Z,99.90
2023-02-03T09:31:24.171Z,99.90
2023-02-03T09:33:51.815Z,99.90
2023-02-03T09:36:19.526Z,99.90
2023-02-03T09:38:47.327Z,99.90
2023-02-03T09:41:33.845Z,99.90
2023-02-03T09:44:25.508Z,99.90
2023-02-03T09:47:02.094Z,99.90
2023-02-03T09:49:41.940Z,99.90
2023-02-03T09:52:23.605Z,99.90
2023-02-03T09:55:18.809Z,99.90
2023-02-03T09:57:56.963Z,99.90
2023-02-03T10:00:55.931Z,99.90
2023-02-03T10:03:50.408Z,99.90
2023-02-03T10:06:21.158Z,99.90
2023-02-03T10:09:04.011Z,99.90
2023-02-03T10:11:53.167Z,99.90
2023-02-03T10:14:51.876Z,99.90
2023-02-03T10:17:26.260Z,99.90
2023-02-03T10:20:10.905Z,99.90
2023-02-03T10:22:43.255Z,99.90
2023-02-03T10:25:21.286Z,99.90
2023-02-03T10:27:49.530Z,99.90
2023-02-03T10:30:33.515Z,99.90
2023-02-03T10:33:11.353Z,99.90
2023-02-03T10:36:05.156Z,99.90
2023-02-03T10:38:41.976Z,99.90
2023-02-03T10:41:11.784Z,99.70
2023-02-03T10:43:49.900Z,99.70
2023-02-03T10:46:32.426Z,98.30
2023-02-03T10:49:01.627Z,99.30
2023-02-03T10:51:52.749Z,98.30
2023-02-03T10:54:41.952Z,97.90
2023-02-03T10:57:30.625Z,97.80
2023-02-03T11:00:22.180Z,99.30
2023-02-03T11:03:21.486Z,98.50
2023-02-03T11:06:04.138Z,98.10
2023-02-03T11:08:33.247Z,97.80
2023-02-03T11:11:26.310Z,99.40
2023-02-03T11:13:56.733Z,99.60
2023-02-03T11:16:24.799Z,99.50
2023-02-03T11:19:06.888Z,99.50
2023-02-03T11:21:38.160Z,99.10
2023-02-03T11:24:33.348Z,99.00
2023-02-03T11:27:07.231Z,99.20
2023-02-03T11:32:35.610Z,98.30
2023-02-03T11:35:17.435Z,98.80
2023-02-03T11:37:50.763Z,99.60
2023-02-03T11:40:22.989Z,99.10
2023-02-03T11:42:50.799Z,99.90
2023-02-03T11:45:30.377Z,99.00
2023-02-03T11:51:02.203Z,99.90
2023-02-03T11:54:05.150Z,99.30
2023-02-03T11:56:35.632Z,99.30
2023-02-03T11:59:09.130Z,98.70
2023-02-03T12:01:59.278Z,99.90
2023-02-03T12:04:54.859Z,98.90
2023-02-03T12:07:29.891Z,99.90
2023-02-03T12:10:07.489Z,99.90
2023-02-03T12:12:44.763Z,99.40
2023-02-03T12:15:18.652Z,99.50
2023-02-03T12:17:57.066Z,98.10
2023-02-03T12:20:54.471Z,96.60
2023-02-03T12:23:40.969Z,95.10
2023-02-03T12:26:27.832Z,95.30
2023-02-03T12:29:01.810Z,95.80
2023-02-03T12:31:48.156Z,95.50
2023-02-03T12:34:34.207Z,94.80
2023-02-03T12:47:23.656Z,94.80
2023-02-03T12:59:08.529Z,97.30
2023-02-03T13:01:50.349Z,96.30
2023-02-03T13:04:39.357Z,96.20
2023-02-03T13:07:24.262Z,98.10
2023-02-03T13:13:31.630Z,97.30
2023-02-03T13:16:02.566Z,97.40
2023-02-03T13:18:39.701Z,96.10
2023-02-03T13:21:16.493Z,97.60
2023-02-03T13:23:51.553Z,98.10
2023-02-03T13:26:43.571Z,97.80
2023-02-03T13:29:30.093Z,99.80
2023-02-03T13:32:38.820Z,99.90
2023-02-03T13:35:09.469Z,97.20
2023-02-03T13:38:06.381Z,97.80
2023-02-03T13:41:01.271Z,99.30
2023-02-03T13:43:40.512Z,99.50
2023-02-03T13:46:25.600Z,98.80
2023-02-03T13:48:59.449Z,98.50
2023-02-03T13:51:35.038Z,99.90
2023-02-03T13:54:13.762Z,99.90
2023-02-03T13:56:42.239Z,99.90
2023-02-03T13:59:16.010Z,99.90
2023-02-03T14:01:47.079Z,99.90
2023-02-03T14:04:26.765Z,99.90
2023-02-03T14:06:56.540Z,99.90
2023-02-03T14:09:34.632Z,99.90
2023-02-03T14:12:21.169Z,99.90
2023-02-03T14:14:51.826Z,99.90
2023-02-03T14:17:34.871Z,99.90
2023-02-03T14:20:05.457Z,99.90
2023-02-03T14:22:33.384Z,99.90
2023-02-03T14:25:07.033Z,99.90
2023-02-03T14:27:34.777Z,99.90
2023-02-03T14:30:22.673Z,99.90
2023-02-03T14:32:52.219Z,99.90
2023-02-03T14:35:24.197Z,99.90
2023-02-03T14:37:57.799Z,99.90
2023-02-03T14:40:43.051Z,99.90
2023-02-03T14:43:20.077Z,99.90
2023-02-03T14:46:06.656Z,99.90
2023-02-03T14:48:45.430Z,99.90
2023-02-03T14:51:23.981Z,99.90
2023-02-03T14:54:03.630Z,99.90
2023-02-03T14:57:02.236Z,99.90
2023-02-03T14:59:41.170Z,99.90
2023-02-03T15:02:14.876Z,99.90
2023-02-03T15:04:50.476Z,99.90
2023-02-03T15:07:38.683Z,99.90
2023-02-03T15:10:18.316Z,99.90
2023-02-03T15:12:51.495Z,99.90
2023-02-03T15:15:29.844Z,99.90
2023-02-03T15:17:59.874Z,99.90
2023-02-03T15:20:43.680Z,99.90
2023-02-03T15:23:23.457Z,99.90
2023-02-03T15:25:55.565Z,99.90
2023-02-03T15:28:28.183Z,99.90
2023-02-03T15:30:55.850Z,99.90
2023-02-03T15:33:24.597Z,99.90
2023-02-03T15:35:58.123Z,99.90
2023-02-03T15:38:31.269Z,99.90
2023-02-03T15:40:59.691Z,99.90
2023-02-03T15:43:43.009Z,99.90
2023-02-03T15:46:33.751Z,99.90
2023-02-03T15:49:12.516Z,99.90
2023-02-03T15:51:45.711Z,99.90
2023-02-03T15:54:15.706Z,99.90
2023-02-03T15:56:56.479Z,99.90
2023-02-03T15:59:37.161Z,99.90
2023-02-03T16:02:17.779Z,99.90
2023-02-03T16:04:46.302Z,99.90
2023-02-03T16:07:21.181Z,99.90
2023-02-03T16:09:53.637Z,99.90
2023-02-03T16:12:30.198Z,99.90
2023-02-03T16:15:02.221Z,99.90
2023-02-03T16:17:35.638Z,99.90
2023-02-03T16:20:12.253Z,99.90
2023-02-03T16:22:45.928Z,99.90
2023-02-03T16:25:34.151Z,99.90
2023-02-03T16:28:35.037Z,99.90
2023-02-03T16:31:22.658Z,99.90
2023-02-03T16:34:12.066Z,99.90
2023-02-03T16:37:02.952Z,99.90
2023-02-03T16:40:05.950Z,99.90
2023-02-03T16:42:58.871Z,99.90
2023-02-03T16:45:44.926Z,99.90
2023-02-03T16:48:31.423Z,99.90
2023-02-03T16:51:14.056Z,99.90
2023-02-03T16:53:45.870Z,99.90
2023-02-03T16:56:13.909Z,99.90
2023-02-03T16:58:41.541Z,99.90
2023-02-03T17:01:11.836Z,99.90
2023-02-03T17:03:39.887Z,99.90
2023-02-03T17:06:12.681Z,99.90
2023-02-03T17:08:41.731Z,99.90
2023-02-03T17:11:20.693Z,99.90
2023-02-03T17:13:54.047Z,99.90
2023-02-03T17:16:25.132Z,99.90
2023-02-03T17:18:53.055Z,99.90
2023-02-03T17:21:25.453Z,99.90
2023-02-03T17:23:53.300Z,99.90
2023-02-03T17:26:21.136Z,99.90
2023-02-03T17:28:48.788Z,99.90
2023-02-03T17:31:19.218Z,99.90
2023-02-03T17:33:50.773Z,99.90
2023-02-03T17:36:21.957Z,99.90
2023-02-03T17:55:28.857Z,99.90
2023-02-03T17:57:56.612Z,99.90
2023-02-03T18:00:24.470Z,99.90
2023-02-03T18:02:52.671Z,99.90
2023-02-03T18:05:21.049Z,99.90
2023-02-03T18:10:21.574Z,99.90
2023-02-03T18:12:49.503Z,99.90
2023-02-03T18:15:17.747Z,99.90
2023-02-03T18:17:45.803Z,99.90
2023-02-03T18:20:13.772Z,99.90
2023-02-03T18:22:43.842Z,99.90
2023-02-03T18:25:12.822Z,99.90
2023-02-03T18:27:43.052Z,99.90
2023-02-03T18:30:19.141Z,99.90
2023-02-03T18:32:54.697Z,99.90
2023-02-03T18:35:30.305Z,99.90
2023-02-03T18:38:02.970Z,99.90
2023-02-03T18:40:39.155Z,99.90
2023-02-03T18:43:11.961Z,99.90
2023-02-03T18:45:48.343Z,99.90
2023-02-03T18:48:25.765Z,99.90
2023-02-03T18:51:07.789Z,99.90
2023-02-03T18:53:37.341Z,99.90
2023-02-03T18:56:37.873Z,99.90
2023-02-03T18:59:29.481Z,99.90
2023-02-03T19:01:59.264Z,99.90
2023-02-03T19:04:27.052Z,99.90
2023-02-03T19:06:54.811Z,99.90
2023-02-03T19:09:23.832Z,99.90
2023-02-03T19:11:51.781Z,99.90
2023-02-03T19:14:20.245Z,99.90
2023-02-03T19:16:56.171Z,99.90
2023-02-03T19:19:26.958Z,99.90
2023-02-03T19:21:55.549Z,99.90
2023-02-03T19:24:24.939Z,99.90
2023-02-03T19:26:53.544Z,99.90
2023-02-03T19:29:21.131Z,99.90
2023-02-03T19:31:51.196Z,99.90
2023-02-03T19:34:19.055Z,99.90
2023-02-03T19:36:49.364Z,99.90
2023-02-03T19:39:18.787Z,99.90
2023-02-03T19:41:49.035Z,99.90
2023-02-03T19:44:16.981Z,99.90
2023-02-03T19:46:46.509Z,99.90
2023-02-03T19:49:15.256Z,99.90
2023-02-03T19:51:44.129Z,99.90
2023-02-03T19:54:15.991Z,99.90
2023-02-03T19:56:44.699Z,99.90
2023-02-03T19:59:12.439Z,99.90
2023-02-03T20:01:40.232Z,99.90
2023-02-03T20:04:08.006Z,99.90
2023-02-03T20:06:35.913Z,99.90
2023-02-03T20:09:06.283Z,99.90
2023-02-03T20:11:34.254Z,99.90
2023-02-03T20:14:01.986Z,99.90
2023-02-03T20:16:29.694Z,99.90
2023-02-03T20:18:58.294Z,99.90
2023-02-03T20:21:28.930Z,99.90
2023-02-03T20:23:58.388Z,99.90
2023-02-03T20:26:49.959Z,99.90
2023-02-03T20:29:20.864Z,99.90
2023-02-03T20:31:48.604Z,99.90
2023-02-03T20:34:16.357Z,99.90
2023-02-03T20:36:44.174Z,99.90
2023-02-03T20:39:22.272Z,99.90
2023-02-03T20:41:50.028Z,99.90
2023-02-03T20:44:17.960Z,99.90
2023-02-03T20:46:46.209Z,99.90
2023-02-03T20:49:16.772Z,99.90
2023-02-03T20:51:44.558Z,99.90
2023-02-03T20:54:21.556Z,99.90
2023-02-03T20:56:49.659Z,99.90
2023-02-03T20:59:19.215Z,99.90
2023-02-03T21:01:47.609Z,99.90
2023-02-03T21:04:36.204Z,99.90
2023-02-03T21:07:15.223Z,99.90
2023-02-03T21:09:44.077Z,99.90
2023-02-03T21:12:13.438Z,99.90
2023-02-03T21:14:49.019Z,99.90
2023-02-03T21:17:20.830Z,99.90
2023-02-03T21:19:48.727Z,99.90
2023-02-03T21:22:21.934Z,99.90
2023-02-03T21:24:56.977Z,99.90
2023-02-03T21:27:34.932Z,99.90
2023-02-03T21:30:22.877Z,99.90
2023-02-03T21:32:50.575Z,99.90
2023-02-03T21:35:34.047Z,99.90
2023-02-03T21:38:16.592Z,99.90
2023-02-03T21:40:44.254Z,99.90
2023-02-03T21:43:17.529Z,99.90
2023-02-03T21:45:45.229Z,99.90
2023-02-03T21:48:37.572Z,99.90
2023-02-03T21:51:15.765Z,99.90
2023-02-03T21:53:49.815Z,99.90
2023-02-03T21:56:40.221Z,99.90
2023-02-03T21:59:21.188Z,99.90
2023-02-03T22:01:49.566Z,99.90
2023-02-03T22:04:17.230Z,99.90
2023-02-03T22:06:49.115Z,99.90
2023-02-03T22:09:19.116Z,99.90
2023-02-03T22:11:46.818Z,99.90
2023-02-03T22:14:16.641Z,99.90
2023-02-03T22:16:44.930Z,99.90
2023-02-03T22:19:17.761Z,99.90
2023-02-03T22:21:47.738Z,99.90
2023-02-03T22:24:15.370Z,99.90
2023-02-03T22:26:43.003Z,99.90
2023-02-03T22:29:10.617Z,99.90
2023-02-03T22:31:40.779Z,99.90
2023-02-03T22:34:09.369Z,99.90
2023-02-03T22:36:36.946Z,99.90
2023-02-03T22:39:04.841Z,99.90
2023-02-03T22:41:32.405Z,99.90
2023-02-03T22:44:00.033Z,99.90
2023-02-03T22:46:27.732Z,99.90
2023-02-03T22:48:55.410Z,99.90
2023-02-03T22:51:23.112Z,99.90
2023-02-03T22:53:50.697Z,99.90
2023-02-03T22:56:18.324Z,99.90
2023-02-03T22:58:45.938Z,99.90
2023-02-03T23:01:13.580Z,99.90
2023-02-03T23:03:41.282Z,99.90
2023-02-03T23:06:08.902Z,99.90
2023-02-03T23:08:36.547Z,99.90
2023-02-03T23:11:04.730Z,99.90
2023-02-03T23:13:32.402Z,99.90
2023-02-03T23:16:00.217Z,99.90
2023-02-03T23:18:27.915Z,99.90
2023-02-03T23:20:55.570Z,99.90
2023-02-03T23:23:23.285Z,99.90
2023-02-03T23:25:51.906Z,99.90
2023-02-03T23:28:19.831Z,99.90
2023-02-03T23:30:47.666Z,99.90
2023-02-03T23:33:15.301Z,99.90
2023-02-03T23:35:45.542Z,99.90
2023-02-03T23:38:15.210Z,99.90
2023-02-03T23:40:43.947Z,99.90
2023-02-03T23:43:11.917Z,99.90
2023-02-03T23:45:40.138Z,99.90
2023-02-03T23:48:08.197Z,99.90
2023-02-03T23:50:35.929Z,99.90
2023-02-03T23:53:03.630Z,99.90
2023-02-03T23:55:31.566Z,99.90
2023-02-03T23:57:59.235Z,99.90
